LFPN 301030Z AUTO 10013KT 070V140 CAVOK 22/05 Q1020

ElémentsDécodage
LFPN Station météo située sur l'aérodrome de TOUSSUS-LE-NOBLE
301030Z émis le 30 du mois à 10h30 UTC
AUTO Bulletin édité par un automate
10013KT vent du 100°, 13 noeuds
070V140 vent de direction variable entre 070° et 140°
CAVOK Ceiling And Visibility OK
- Visibilité de 10 Km ou plus
- Pas de nuage au-dessous de 1500m ou au-dessous de l'altitude minimale du secteur la plus élevée (si>1500m) et absence de CB
- pas de temps présent significatif
22/05 température 22°C, point de rosée 05°C
 soit une humidité relative de 33%
Q1020 la pression au niveau de la mer (QNH) est de 1020 hPa